createdAt,value
2023-05-06T00:00:12.689Z,99.90
2023-05-06T00:02:39.513Z,99.90
2023-05-06T00:05:07.010Z,99.90
2023-05-06T00:07:34.011Z,99.90
2023-05-06T00:10:00.837Z,99.90
2023-05-06T00:12:27.692Z,99.90
2023-05-06T00:14:54.526Z,99.90
2023-05-06T00:17:21.304Z,99.90
2023-05-06T00:19:48.118Z,99.90
2023-05-06T00:22:14.969Z,99.90
2023-05-06T00:24:41.762Z,99.90
2023-05-06T00:27:08.864Z,99.90
2023-05-06T00:29:35.683Z,99.90
2023-05-06T00:32:02.583Z,99.90
2023-05-06T00:34:29.448Z,99.90
2023-05-06T00:36:56.272Z,99.90
2023-05-06T00:39:23.044Z,99.90
2023-05-06T00:41:50.106Z,99.90
2023-05-06T00:44:17.050Z,99.90
2023-05-06T00:46:43.969Z,99.90
2023-05-06T00:49:11.913Z,99.90
2023-05-06T00:51:38.792Z,99.90
2023-05-06T00:54:05.827Z,99.90
2023-05-06T00:56:32.685Z,99.90
2023-05-06T00:58:59.719Z,99.90
2023-05-06T01:01:27.344Z,99.90
2023-05-06T01:03:57.637Z,99.90
2023-05-06T01:06:35.840Z,99.90
2023-05-06T01:09:23.195Z,99.90
2023-05-06T01:12:05.908Z,99.90
2023-05-06T01:14:43.635Z,99.90
2023-05-06T01:17:11.768Z,99.90
2023-05-06T01:19:42.537Z,99.90
2023-05-06T01:22:10.397Z,99.90
2023-05-06T01:24:38.553Z,99.90
2023-05-06T01:27:05.583Z,99.90
2023-05-06T01:29:32.522Z,99.90
2023-05-06T01:32:10.104Z,99.90
2023-05-06T01:35:08.721Z,99.90
2023-05-06T01:37:56.025Z,99.90
2023-05-06T01:40:24.488Z,99.90
2023-05-06T01:42:51.303Z,99.90
2023-05-06T01:45:18.662Z,99.90
2023-05-06T01:47:46.557Z,99.90
2023-05-06T01:50:13.677Z,99.90
2023-05-06T01:52:41.270Z,99.90
2023-05-06T01:55:08.706Z,99.90
2023-05-06T01:57:36.023Z,99.90
2023-05-06T02:00:02.915Z,99.90
2023-05-06T02:02:29.959Z,99.90
2023-05-06T02:04:56.912Z,99.90
2023-05-06T02:07:23.770Z,99.90
2023-05-06T02:09:50.638Z,99.90
2023-05-06T02:12:17.416Z,99.90
2023-05-06T02:14:44.777Z,99.90
2023-05-06T02:17:11.566Z,99.90
2023-05-06T02:19:38.361Z,99.90
2023-05-06T02:22:05.168Z,99.90
2023-05-06T02:24:32.033Z,99.90
2023-05-06T02:26:58.931Z,99.90
2023-05-06T02:29:25.831Z,99.90
2023-05-06T02:31:52.709Z,99.90
2023-05-06T02:34:19.621Z,99.90
2023-05-06T02:36:46.475Z,99.90
2023-05-06T02:39:13.317Z,99.90
2023-05-06T02:41:40.149Z,99.90
2023-05-06T02:44:07.000Z,99.90
2023-05-06T02:46:34.729Z,99.90
2023-05-06T02:49:02.133Z,99.90
2023-05-06T02:51:29.145Z,99.90
2023-05-06T02:53:55.927Z,99.90
2023-05-06T02:56:22.690Z,99.90
2023-05-06T02:58:49.515Z,99.90
2023-05-06T03:01:16.306Z,99.90
2023-05-06T03:03:43.217Z,99.90
2023-05-06T03:06:10.028Z,99.90
2023-05-06T03:08:36.844Z,99.90
2023-05-06T03:11:03.791Z,99.90
2023-05-06T03:13:30.635Z,99.90
2023-05-06T03:15:57.398Z,99.90
2023-05-06T03:18:24.194Z,99.90
2023-05-06T03:20:51.462Z,99.90
2023-05-06T03:23:18.296Z,99.90
2023-05-06T03:25:45.179Z,99.90
2023-05-06T03:28:12.313Z,99.90
2023-05-06T03:30:39.297Z,99.90
2023-05-06T03:33:06.138Z,99.90
2023-05-06T03:35:32.981Z,99.90
2023-05-06T03:37:59.817Z,99.90
2023-05-06T03:40:26.755Z,99.90
2023-05-06T03:42:53.645Z,99.90
2023-05-06T03:45:20.517Z,99.90
2023-05-06T03:47:48.278Z,99.90
2023-05-06T03:50:15.384Z,99.90
2023-05-06T03:52:42.253Z,99.90
2023-05-06T03:55:09.824Z,99.90
2023-05-06T03:57:36.852Z,99.90
2023-05-06T04:00:03.926Z,99.90
2023-05-06T04:02:31.494Z,99.90
2023-05-06T04:04:58.751Z,99.90
2023-05-06T04:07:25.661Z,99.90
2023-05-06T04:09:52.489Z,99.90
2023-05-06T04:12:19.324Z,97.80
2023-05-06T04:14:46.110Z,96.40
2023-05-06T04:17:13.029Z,93.20
2023-05-06T04:19:39.827Z,94.10
2023-05-06T04:22:06.620Z,92.20
2023-05-06T04:24:33.853Z,86.80
2023-05-06T04:27:00.888Z,86.50
2023-05-06T04:29:27.653Z,85.30
2023-05-06T04:31:55.391Z,82.50
2023-05-06T04:34:22.299Z,80.70
2023-05-06T04:36:49.562Z,77.10
2023-05-06T04:39:16.471Z,75.50
2023-05-06T04:41:44.560Z,74.00
2023-05-06T04:44:11.553Z,73.60
2023-05-06T04:46:38.381Z,70.40
2023-05-06T04:49:05.193Z,68.90
2023-05-06T04:51:32.033Z,68.90
2023-05-06T04:53:58.820Z,68.00
2023-05-06T04:56:26.265Z,67.40
2023-05-06T04:58:53.138Z,67.20
2023-05-06T05:01:20.108Z,67.40
2023-05-06T05:03:46.974Z,66.90
2023-05-06T05:06:13.975Z,66.20
2023-05-06T05:08:40.900Z,66.20
2023-05-06T05:11:07.712Z,65.40
2023-05-06T05:13:34.871Z,64.60
2023-05-06T05:16:01.657Z,64.50
2023-05-06T05:18:29.314Z,64.80
2023-05-06T05:20:56.115Z,62.40
2023-05-06T05:23:22.912Z,61.50
2023-05-06T05:25:50.079Z,59.40
2023-05-06T05:28:16.874Z,58.20
2023-05-06T05:30:43.890Z,57.60
2023-05-06T05:33:10.884Z,56.30
2023-05-06T05:35:37.759Z,55.10
2023-05-06T05:38:04.586Z,54.90
2023-05-06T05:40:31.440Z,53.80
2023-05-06T05:42:58.711Z,52.30
2023-05-06T05:45:25.595Z,51.60
2023-05-06T05:47:54.080Z,51.10
2023-05-06T05:50:21.030Z,50.50
2023-05-06T05:52:48.182Z,49.60
2023-05-06T05:55:15.073Z,48.90
2023-05-06T05:57:41.962Z,48.80
2023-05-06T06:00:10.587Z,49.00
2023-05-06T06:02:39.110Z,48.10
2023-05-06T06:05:06.258Z,46.90
2023-05-06T06:07:33.279Z,47.70
2023-05-06T06:10:00.184Z,48.30
2023-05-06T06:12:26.979Z,48.00
2023-05-06T06:14:53.794Z,47.90
2023-05-06T06:17:20.686Z,48.70
2023-05-06T06:19:47.560Z,48.40
2023-05-06T06:22:14.345Z,48.70
2023-05-06T06:24:41.382Z,48.50
2023-05-06T06:27:08.239Z,48.70
2023-05-06T06:29:35.054Z,49.20
2023-05-06T06:32:03.804Z,48.50
2023-05-06T06:34:30.845Z,49.10
2023-05-06T06:36:57.654Z,48.30
2023-05-06T06:39:24.681Z,47.40
2023-05-06T06:41:51.538Z,47.50
2023-05-06T06:44:18.338Z,46.90
2023-05-06T06:46:45.163Z,46.90
2023-05-06T06:49:11.995Z,45.30
2023-05-06T06:51:38.823Z,44.70
2023-05-06T06:54:05.730Z,44.30
2023-05-06T06:56:32.530Z,44.50
2023-05-06T06:58:59.338Z,44.10
2023-05-06T07:01:26.277Z,44.10
2023-05-06T07:03:53.261Z,44.80
2023-05-06T07:06:20.166Z,43.70
2023-05-06T07:08:47.119Z,42.50
2023-05-06T07:11:14.457Z,42.00
2023-05-06T07:13:41.259Z,41.50
2023-05-06T07:16:08.105Z,40.90
2023-05-06T07:18:34.932Z,40.40
2023-05-06T07:21:01.834Z,41.80
2023-05-06T07:23:30.497Z,41.80
2023-05-06T07:25:59.633Z,40.80
2023-05-06T07:28:26.477Z,40.10
2023-05-06T07:30:53.388Z,39.90
2023-05-06T07:33:20.369Z,39.60
2023-05-06T07:35:47.225Z,39.00
2023-05-06T07:38:14.092Z,38.60
2023-05-06T07:40:41.210Z,38.10
2023-05-06T07:43:08.514Z,38.30
2023-05-06T07:45:35.402Z,37.80
2023-05-06T07:48:02.315Z,38.20
2023-05-06T07:50:29.794Z,38.30
2023-05-06T07:52:56.664Z,38.50
2023-05-06T07:55:23.583Z,38.30
2023-05-06T07:57:50.474Z,37.10
2023-05-06T08:00:17.446Z,37.40
2023-05-06T08:02:44.905Z,37.70
2023-05-06T08:05:12.197Z,37.60
2023-05-06T08:07:42.513Z,38.70
2023-05-06T08:10:09.911Z,37.80
2023-05-06T08:12:36.895Z,37.40
2023-05-06T08:15:04.133Z,37.10
2023-05-06T08:17:31.020Z,38.40
2023-05-06T08:19:57.823Z,37.80
2023-05-06T08:22:24.668Z,38.90
2023-05-06T08:24:51.978Z,38.60
2023-05-06T08:27:18.827Z,38.30
2023-05-06T08:29:46.007Z,38.60
2023-05-06T08:32:13.553Z,38.50
2023-05-06T08:34:41.002Z,39.60
2023-05-06T08:37:08.225Z,39.00
2023-05-06T08:39:34.995Z,37.80
2023-05-06T08:42:05.310Z,37.60
2023-05-06T08:44:33.547Z,37.80
2023-05-06T08:47:00.431Z,38.50
2023-05-06T08:49:27.276Z,39.50
2023-05-06T08:51:54.251Z,38.70
2023-05-06T08:54:21.525Z,39.10
2023-05-06T08:56:53.197Z,38.80
2023-05-06T08:59:24.894Z,39.30
2023-05-06T09:01:54.498Z,38.00
2023-05-06T09:04:21.267Z,37.60
2023-05-06T09:06:48.153Z,38.50
2023-05-06T09:09:15.081Z,38.50
2023-05-06T09:11:42.020Z,37.60
2023-05-06T09:14:16.379Z,38.70
2023-05-06T09:16:44.693Z,38.10
2023-05-06T09:19:11.856Z,37.60
2023-05-06T09:21:43.106Z,35.10
2023-05-06T09:24:10.961Z,36.00
2023-05-06T09:26:38.626Z,35.80
2023-05-06T09:29:05.906Z,36.20
2023-05-06T09:31:33.064Z,34.40
2023-05-06T09:34:00.365Z,33.80
2023-05-06T09:36:28.251Z,34.30
2023-05-06T09:38:55.962Z,35.20
2023-05-06T09:41:27.505Z,34.40
2023-05-06T09:43:54.851Z,35.20
2023-05-06T09:46:22.205Z,35.10
2023-05-06T09:48:50.800Z,36.00
2023-05-06T09:51:17.807Z,37.70
2023-05-06T09:53:45.136Z,37.90
2023-05-06T09:56:14.897Z,39.30
2023-05-06T09:58:42.532Z,39.60
2023-05-06T10:01:09.655Z,41.30
2023-05-06T10:03:36.820Z,43.40
2023-05-06T10:06:06.000Z,44.60
2023-05-06T10:08:33.848Z,44.70
2023-05-06T10:11:01.355Z,44.90
2023-05-06T10:13:28.210Z,45.90
2023-05-06T10:15:55.154Z,45.80
2023-05-06T10:18:22.208Z,47.10
2023-05-06T10:20:49.774Z,48.40
2023-05-06T10:23:42.463Z,48.40
2023-05-06T10:26:11.440Z,48.60
2023-05-06T10:28:42.359Z,48.80
2023-05-06T10:31:12.461Z,48.90
2023-05-06T10:33:44.869Z,49.10
2023-05-06T10:36:20.666Z,47.60
2023-05-06T10:38:54.956Z,47.90
2023-05-06T10:41:22.311Z,47.00
2023-05-06T10:43:57.150Z,47.80
2023-05-06T10:46:25.103Z,48.60
2023-05-06T10:49:06.812Z,49.30
2023-05-06T10:51:34.620Z,49.00
2023-05-06T10:54:07.825Z,48.80
2023-05-06T10:56:38.808Z,50.40
2023-05-06T10:59:10.182Z,50.70
2023-05-06T11:01:44.056Z,50.20
2023-05-06T11:04:15.595Z,47.90
2023-05-06T11:06:46.470Z,46.30
2023-05-06T11:09:17.311Z,46.70
2023-05-06T11:11:56.035Z,49.00
2023-05-06T11:14:36.080Z,46.80
2023-05-06T11:17:04.960Z,47.40
2023-05-06T11:19:36.043Z,48.60
2023-05-06T11:22:04.103Z,49.40
2023-05-06T11:24:32.098Z,49.20
2023-05-06T11:26:59.809Z,47.70
2023-05-06T11:29:27.121Z,48.90
2023-05-06T11:31:54.212Z,47.10
2023-05-06T11:34:22.701Z,47.70
2023-05-06T11:37:07.934Z,46.10
2023-05-06T11:39:40.450Z,46.70
2023-05-06T11:42:08.801Z,45.60
2023-05-06T11:44:39.006Z,45.70
2023-05-06T11:47:07.592Z,44.70
2023-05-06T11:49:42.752Z,44.60
2023-05-06T11:52:10.825Z,45.70
2023-05-06T11:54:41.457Z,45.70
2023-05-06T11:57:08.656Z,45.70
2023-05-06T11:59:39.901Z,45.60
2023-05-06T12:02:12.790Z,45.80
2023-05-06T12:04:46.893Z,45.60
2023-05-06T12:07:14.835Z,45.30
2023-05-06T12:09:49.215Z,46.00
2023-05-06T12:12:17.647Z,46.00
2023-05-06T12:14:44.431Z,44.90
2023-05-06T12:17:11.246Z,43.20
2023-05-06T12:19:38.287Z,43.30
2023-05-06T12:22:31.411Z,43.80
2023-05-06T12:24:58.226Z,46.00
2023-05-06T12:27:30.187Z,43.70
2023-05-06T12:29:57.026Z,42.70
2023-05-06T12:32:23.915Z,42.00
2023-05-06T12:34:50.745Z,41.60
2023-05-06T12:37:30.200Z,41.60
2023-05-06T12:39:59.197Z,43.30
2023-05-06T12:42:26.417Z,41.10
2023-05-06T12:44:53.247Z,40.80
2023-05-06T12:47:21.153Z,40.80
2023-05-06T12:49:52.802Z,39.30
2023-05-06T12:52:20.799Z,39.30
2023-05-06T12:54:47.968Z,40.30
2023-05-06T12:57:14.970Z,40.80
2023-05-06T12:59:42.794Z,41.80
2023-05-06T13:02:09.774Z,40.00
2023-05-06T13:04:36.626Z,40.40
2023-05-06T13:07:03.566Z,39.50
2023-05-06T13:09:30.487Z,40.30
2023-05-06T13:11:57.733Z,39.10
2023-05-06T13:14:24.560Z,40.50
2023-05-06T13:16:51.543Z,39.00
2023-05-06T13:19:31.506Z,38.50
2023-05-06T13:22:00.611Z,38.70
2023-05-06T13:24:27.773Z,39.70
2023-05-06T13:26:56.381Z,41.40
2023-05-06T13:29:23.753Z,41.10
2023-05-06T13:31:51.640Z,42.10
2023-05-06T13:34:18.881Z,42.90
2023-05-06T13:36:46.842Z,41.30
2023-05-06T13:39:13.906Z,41.90
2023-05-06T13:41:40.863Z,42.30
2023-05-06T13:44:07.816Z,42.40
2023-05-06T13:46:34.762Z,42.30
2023-05-06T13:49:01.638Z,40.90
2023-05-06T13:51:30.811Z,42.30
2023-05-06T13:53:57.781Z,42.60
2023-05-06T13:56:24.695Z,40.50
2023-05-06T13:58:53.189Z,40.70
2023-05-06T14:01:23.855Z,42.30
2023-05-06T14:03:50.768Z,41.30
2023-05-06T14:06:17.629Z,42.00
2023-05-06T14:08:44.460Z,41.90
2023-05-06T14:11:11.520Z,41.70
2023-05-06T14:13:40.387Z,41.40
2023-05-06T14:16:07.439Z,40.90
2023-05-06T14:18:34.452Z,40.30
2023-05-06T14:21:01.378Z,42.10
2023-05-06T14:23:28.304Z,41.90
2023-05-06T14:25:55.130Z,40.40
2023-05-06T14:28:22.009Z,40.90
2023-05-06T14:30:50.815Z,40.50
2023-05-06T14:33:17.609Z,40.60
2023-05-06T14:35:46.172Z,41.20
2023-05-06T14:38:13.088Z,41.30
2023-05-06T14:40:39.941Z,40.80
2023-05-06T14:43:07.601Z,42.20
2023-05-06T14:45:34.592Z,39.80
2023-05-06T14:48:01.642Z,41.50
2023-05-06T14:50:28.682Z,41.70
2023-05-06T14:52:55.487Z,40.70
2023-05-06T14:55:22.444Z,41.20
2023-05-06T14:57:49.436Z,41.10
2023-05-06T15:00:17.169Z,41.20
2023-05-06T15:02:44.147Z,41.70
2023-05-06T15:05:12.064Z,41.20
2023-05-06T15:07:39.205Z,40.80
2023-05-06T15:10:06.402Z,39.60
2023-05-06T15:12:33.562Z,40.80
2023-05-06T15:15:00.662Z,40.20
2023-05-06T15:17:27.493Z,40.40
2023-05-06T15:19:54.644Z,40.20
2023-05-06T15:22:21.489Z,38.20
2023-05-06T15:24:48.487Z,38.90
2023-05-06T15:27:15.458Z,38.20
2023-05-06T15:29:42.329Z,39.20
2023-05-06T15:32:09.269Z,38.90
2023-05-06T15:34:36.530Z,39.30
2023-05-06T15:37:03.412Z,39.20
2023-05-06T15:39:31.267Z,40.20
2023-05-06T15:41:59.382Z,40.20
2023-05-06T15:44:26.931Z,40.70
2023-05-06T15:46:53.970Z,40.70
2023-05-06T15:51:50.625Z,40.90
2023-05-06T15:54:20.137Z,40.10
2023-05-06T15:56:47.085Z,41.10
2023-05-06T15:59:14.035Z,41.80
2023-05-06T16:02:24.728Z,42.60
2023-05-06T16:04:28.817Z,43.30
2023-05-06T16:06:56.198Z,43.20
2023-05-06T16:09:23.321Z,43.50
2023-05-06T16:11:50.150Z,43.50
2023-05-06T16:14:17.010Z,43.80
2023-05-06T16:16:43.920Z,43.50
2023-05-06T16:19:10.834Z,43.40
2023-05-06T16:21:37.685Z,42.70
2023-05-06T16:24:04.645Z,42.70
2023-05-06T16:26:31.653Z,42.90
2023-05-06T16:28:59.590Z,43.90
2023-05-06T16:31:26.584Z,43.90
2023-05-06T16:33:53.792Z,42.80
2023-05-06T16:36:20.661Z,43.90
2023-05-06T16:38:47.553Z,43.60
2023-05-06T16:41:14.411Z,43.70
2023-05-06T16:43:41.361Z,44.20
2023-05-06T16:46:08.252Z,44.90
2023-05-06T16:48:35.277Z,45.10
2023-05-06T16:51:02.236Z,45.50
2023-05-06T16:53:29.498Z,45.50
2023-05-06T16:55:56.425Z,45.80
2023-05-06T16:58:23.261Z,46.30
2023-05-06T17:00:52.676Z,46.30
2023-05-06T17:03:19.708Z,46.50
2023-05-06T17:05:47.092Z,47.00
2023-05-06T17:08:16.171Z,47.10
2023-05-06T17:10:43.579Z,47.70
2023-05-06T17:13:10.643Z,47.90
2023-05-06T17:15:37.654Z,48.30
2023-05-06T17:18:04.647Z,48.50
2023-05-06T17:20:31.509Z,48.50
2023-05-06T17:22:58.347Z,48.70
2023-05-06T17:25:25.428Z,48.70
2023-05-06T17:27:52.328Z,48.90
2023-05-06T17:30:20.868Z,49.20
2023-05-06T17:32:47.927Z,49.40
2023-05-06T17:35:15.055Z,49.70
2023-05-06T17:37:41.967Z,50.10
2023-05-06T17:40:09.212Z,51.00
2023-05-06T17:42:36.147Z,50.60
2023-05-06T17:45:03.027Z,50.80
2023-05-06T17:47:30.349Z,51.10
2023-05-06T17:49:57.492Z,51.50
2023-05-06T17:52:25.755Z,51.80
2023-05-06T17:55:10.814Z,52.20
2023-05-06T17:57:38.518Z,53.20
2023-05-06T18:00:07.434Z,53.90
2023-05-06T18:02:34.522Z,55.10
2023-05-06T18:05:01.536Z,55.60
2023-05-06T18:07:29.129Z,56.00
2023-05-06T18:09:56.414Z,56.50
2023-05-06T18:12:23.902Z,57.00
2023-05-06T18:14:50.827Z,57.90
2023-05-06T18:17:17.631Z,58.70
2023-05-06T18:19:44.415Z,59.40
2023-05-06T18:22:11.268Z,60.20
2023-05-06T18:24:38.262Z,61.20
2023-05-06T18:27:05.220Z,61.60
2023-05-06T18:29:33.261Z,62.30
2023-05-06T18:32:01.271Z,62.80
2023-05-06T18:34:28.216Z,63.30
2023-05-06T18:36:55.084Z,63.50
2023-05-06T18:39:23.199Z,63.70
2023-05-06T18:41:50.028Z,64.30
2023-05-06T18:44:16.853Z,64.70
2023-05-06T18:46:43.651Z,65.10
2023-05-06T18:49:10.775Z,65.50
2023-05-06T18:51:37.581Z,65.90
2023-05-06T18:54:04.453Z,66.50
2023-05-06T18:56:31.716Z,66.90
2023-05-06T18:58:58.545Z,67.10
2023-05-06T19:01:25.583Z,67.50
2023-05-06T19:03:52.583Z,68.20
2023-05-06T19:06:19.489Z,68.60
2023-05-06T19:08:46.929Z,69.00
2023-05-06T19:11:18.960Z,69.00
2023-05-06T19:13:46.283Z,69.10
2023-05-06T19:16:13.634Z,69.50
2023-05-06T19:18:40.662Z,70.00
2023-05-06T19:21:10.122Z,70.20
2023-05-06T19:23:37.099Z,70.80
2023-05-06T19:26:06.365Z,71.30
2023-05-06T19:28:34.317Z,71.50
2023-05-06T19:31:01.555Z,71.90
2023-05-06T19:33:28.648Z,72.20
2023-05-06T19:35:55.558Z,72.50
2023-05-06T19:38:22.404Z,73.00
2023-05-06T19:40:49.500Z,73.20
2023-05-06T19:43:16.734Z,73.30
2023-05-06T19:45:43.532Z,73.50
2023-05-06T19:48:10.338Z,73.60
2023-05-06T19:50:37.235Z,74.30
2023-05-06T19:53:04.217Z,74.60
2023-05-06T19:55:34.570Z,75.00
2023-05-06T19:58:02.314Z,75.00
2023-05-06T20:00:30.382Z,75.40
2023-05-06T20:02:58.137Z,75.70
2023-05-06T20:05:31.921Z,76.40
2023-05-06T20:07:59.920Z,77.20
2023-05-06T20:10:27.505Z,77.60
2023-05-06T20:12:57.220Z,78.20
2023-05-06T20:15:24.655Z,78.40
2023-05-06T20:17:51.474Z,78.70
2023-05-06T20:20:19.426Z,79.00
2023-05-06T20:22:46.286Z,79.30
2023-05-06T20:25:16.106Z,79.50
2023-05-06T20:27:43.521Z,80.00
2023-05-06T20:30:10.791Z,80.60
2023-05-06T20:32:38.741Z,81.70
2023-05-06T20:35:06.320Z,82.70
2023-05-06T20:37:36.527Z,83.70
2023-05-06T20:40:06.621Z,85.00
2023-05-06T20:42:34.019Z,85.90
2023-05-06T20:45:01.176Z,86.80
2023-05-06T20:47:27.990Z,87.80
2023-05-06T20:49:55.126Z,88.80
2023-05-06T20:52:21.983Z,89.90
2023-05-06T20:54:48.961Z,90.30
2023-05-06T20:57:16.448Z,90.90
2023-05-06T20:59:43.358Z,91.50
2023-05-06T21:02:10.350Z,92.10
2023-05-06T21:04:39.978Z,92.40
2023-05-06T21:07:06.765Z,92.50
2023-05-06T21:09:33.635Z,92.60
2023-05-06T21:12:00.400Z,92.60
2023-05-06T21:14:27.457Z,93.20
2023-05-06T21:16:54.280Z,93.40
2023-05-06T21:19:21.141Z,93.40
2023-05-06T21:21:48.395Z,93.60
2023-05-06T21:24:15.450Z,93.90
2023-05-06T21:26:42.237Z,94.20
2023-05-06T21:29:09.041Z,94.50
2023-05-06T21:31:36.227Z,94.90
2023-05-06T21:34:04.226Z,95.40
2023-05-06T21:36:31.304Z,96.20
2023-05-06T21:39:11.987Z,96.70
2023-05-06T21:41:39.355Z,97.00
2023-05-06T21:44:07.208Z,97.10
2023-05-06T21:46:34.363Z,97.10
2023-05-06T21:49:01.358Z,97.30
2023-05-06T21:51:28.335Z,97.20
2023-05-06T21:53:55.208Z,97.20
2023-05-06T21:56:22.352Z,97.10
2023-05-06T21:58:49.407Z,97.10
2023-05-06T22:01:16.266Z,97.30
2023-05-06T22:03:44.058Z,97.30
2023-05-06T22:06:10.932Z,97.50
2023-05-06T22:08:37.764Z,97.70
2023-05-06T22:11:04.562Z,97.70
2023-05-06T22:13:31.657Z,97.70
2023-05-06T22:15:58.590Z,97.90
2023-05-06T22:18:27.905Z,97.90
2023-05-06T22:20:56.495Z,98.00
2023-05-06T22:23:24.403Z,98.10
2023-05-06T22:25:54.504Z,98.20
2023-05-06T22:28:21.783Z,98.60
2023-05-06T22:30:48.652Z,98.80
2023-05-06T22:33:15.505Z,98.90
2023-05-06T22:35:42.338Z,99.00
2023-05-06T22:38:09.106Z,99.10
2023-05-06T22:40:35.927Z,99.20
2023-05-06T22:43:02.785Z,99.70
2023-05-06T22:45:29.651Z,99.90
2023-05-06T22:47:56.878Z,99.90
2023-05-06T22:50:25.031Z,99.90
2023-05-06T22:52:51.969Z,99.90
2023-05-06T22:55:18.928Z,99.90
2023-05-06T22:57:47.115Z,99.90
2023-05-06T23:00:13.986Z,99.90
2023-05-06T23:02:40.990Z,99.90
2023-05-06T23:05:08.307Z,99.90
2023-05-06T23:07:35.781Z,99.90
2023-05-06T23:10:02.612Z,99.90
2023-05-06T23:12:33.482Z,99.90
2023-05-06T23:15:00.469Z,99.90
2023-05-06T23:17:27.317Z,99.90
2023-05-06T23:19:54.132Z,99.90
2023-05-06T23:22:20.996Z,99.90
2023-05-06T23:24:47.906Z,99.90
2023-05-06T23:27:14.731Z,99.90
2023-05-06T23:29:41.710Z,99.90
2023-05-06T23:32:08.677Z,99.90
2023-05-06T23:34:35.486Z,99.90
2023-05-06T23:37:02.251Z,99.90
2023-05-06T23:39:29.097Z,99.90
2023-05-06T23:41:56.042Z,99.90
2023-05-06T23:44:23.120Z,99.90
2023-05-06T23:46:50.089Z,99.90
2023-05-06T23:49:17.051Z,99.90
2023-05-06T23:51:43.817Z,99.90
2023-05-06T23:54:10.615Z,99.90
2023-05-06T23:56:37.443Z,99.90
2023-05-06T23:59:04.261Z,99.90
